createdAt,value
2023-05-16T00:00:54.306Z,12.03
2023-05-16T00:03:57.413Z,11.87
2023-05-16T00:07:02.047Z,11.03
2023-05-16T00:10:06.338Z,11.33
2023-05-16T00:13:09.923Z,10.57
2023-05-16T00:16:14.530Z,10.60
2023-05-16T00:19:17.483Z,11.00
2023-05-16T00:22:21.662Z,10.60
2023-05-16T00:25:24.383Z,10.80
2023-05-16T00:28:27.256Z,10.93
2023-05-16T00:31:30.062Z,10.20
2023-05-16T00:34:32.790Z,10.30
2023-05-16T00:37:36.923Z,10.03
2023-05-16T00:40:40.342Z,10.20
2023-05-16T00:43:43.069Z,9.73
2023-05-16T00:46:45.846Z,10.17
2023-05-16T00:49:48.838Z,10.47
2023-05-16T00:52:53.000Z,10.27
2023-05-16T00:55:57.590Z,10.20
2023-05-16T00:59:00.676Z,9.70
2023-05-16T01:02:03.944Z,9.87
2023-05-16T01:05:07.591Z,9.77
2023-05-16T01:08:11.622Z,9.93
2023-05-16T01:11:23.405Z,10.27
2023-05-16T01:14:33.966Z,9.87
2023-05-16T01:17:45.592Z,10.70
2023-05-16T01:20:56.064Z,10.53
2023-05-16T01:24:11.280Z,10.83
2023-05-16T01:27:16.869Z,10.70
2023-05-16T01:30:21.243Z,10.97
2023-05-16T01:33:23.932Z,11.67
2023-05-16T01:36:31.856Z,14.37
2023-05-16T01:39:39.015Z,13.80
2023-05-16T01:42:46.423Z,14.47
2023-05-16T01:45:55.088Z,15.40
2023-05-16T01:49:16.815Z,14.93
2023-05-16T01:52:27.030Z,16.10
2023-05-16T01:55:43.812Z,15.87
2023-05-16T01:58:51.052Z,14.50
2023-05-16T02:01:54.963Z,16.07
2023-05-16T02:04:57.618Z,14.80
2023-05-16T02:08:00.539Z,15.87
2023-05-16T02:11:03.313Z,17.03
2023-05-16T02:14:07.305Z,17.20
2023-05-16T02:17:10.024Z,17.53
2023-05-16T02:20:14.181Z,17.83
2023-05-16T02:23:16.888Z,18.13
2023-05-16T02:26:19.730Z,19.80
2023-05-16T02:29:23.775Z,19.67
2023-05-16T02:32:26.649Z,19.70
2023-05-16T02:35:29.555Z,18.83
2023-05-16T02:38:32.307Z,19.80
2023-05-16T02:41:34.995Z,19.23
2023-05-16T02:44:39.033Z,19.60
2023-05-16T02:47:41.748Z,19.47
2023-05-16T02:50:44.498Z,20.63
2023-05-16T02:53:47.184Z,19.53
2023-05-16T02:56:49.888Z,20.50
2023-05-16T02:59:53.947Z,21.00
2023-05-16T03:02:57.037Z,22.00
2023-05-16T03:05:59.851Z,22.83
2023-05-16T03:09:03.239Z,22.97
2023-05-16T03:12:07.144Z,22.80
2023-05-16T03:15:12.147Z,23.70
2023-05-16T03:18:14.830Z,24.03
2023-05-16T03:21:17.540Z,25.50
2023-05-16T03:24:23.001Z,24.83
2023-05-16T03:27:27.809Z,25.10
2023-05-16T03:30:31.983Z,26.40
2023-05-16T03:33:34.777Z,27.53
2023-05-16T03:36:37.586Z,26.10
2023-05-16T03:39:40.377Z,25.70
2023-05-16T03:42:43.165Z,25.20
2023-05-16T03:45:47.219Z,25.30
2023-05-16T03:48:50.006Z,26.10
2023-05-16T03:51:52.703Z,26.03
2023-05-16T03:54:55.479Z,25.57
2023-05-16T03:57:58.332Z,26.30
2023-05-16T04:01:03.154Z,25.93
2023-05-16T04:04:05.983Z,27.73
2023-05-16T04:07:15.953Z,26.00
2023-05-16T04:10:18.637Z,27.57
2023-05-16T04:13:21.367Z,26.43
2023-05-16T04:16:25.459Z,28.10
2023-05-16T04:19:28.160Z,27.07
2023-05-16T04:22:30.892Z,26.73
2023-05-16T04:25:33.654Z,27.07
2023-05-16T04:28:36.589Z,27.43
2023-05-16T04:31:40.689Z,27.80
2023-05-16T04:34:44.267Z,27.77
2023-05-16T04:37:47.243Z,26.07
2023-05-16T04:40:51.060Z,27.53
2023-05-16T04:43:53.816Z,27.67
2023-05-16T04:46:57.985Z,25.67
2023-05-16T04:50:00.751Z,25.87
2023-05-16T04:53:03.850Z,26.70
2023-05-16T04:56:07.067Z,25.80
2023-05-16T04:59:09.801Z,26.07
2023-05-16T05:02:14.242Z,25.33
2023-05-16T05:05:17.081Z,26.07
2023-05-16T05:08:19.937Z,23.53
2023-05-16T05:11:23.192Z,24.03
2023-05-16T05:14:25.883Z,22.80
2023-05-16T05:17:30.084Z,21.97
2023-05-16T05:20:32.868Z,24.70
2023-05-16T05:23:35.834Z,24.20
2023-05-16T05:26:38.663Z,25.30
2023-05-16T05:29:41.450Z,25.70
2023-05-16T05:32:45.604Z,23.47
2023-05-16T05:35:48.340Z,22.90
2023-05-16T05:38:51.208Z,23.47
2023-05-16T05:41:53.841Z,23.37
2023-05-16T05:44:58.931Z,24.60
2023-05-16T05:48:03.127Z,23.80
2023-05-16T05:51:06.125Z,22.70
2023-05-16T05:54:09.213Z,23.73
2023-05-16T05:57:11.947Z,23.53
2023-05-16T06:00:18.063Z,25.23
2023-05-16T06:03:22.290Z,23.30
2023-05-16T06:06:25.043Z,24.20
2023-05-16T06:09:27.716Z,22.97
2023-05-16T06:12:30.374Z,23.03
2023-05-16T06:15:33.109Z,23.13
2023-05-16T06:18:37.199Z,22.73
2023-05-16T06:21:39.880Z,22.03
2023-05-16T06:24:42.571Z,22.57
2023-05-16T06:27:47.264Z,20.57
2023-05-16T06:30:51.806Z,20.10
2023-05-16T06:33:56.462Z,21.70
2023-05-16T06:36:59.808Z,21.57
2023-05-16T06:40:02.656Z,23.03
2023-05-16T06:43:05.392Z,22.00
2023-05-16T06:46:08.142Z,22.20
2023-05-16T06:49:12.366Z,23.87
2023-05-16T06:52:15.081Z,23.43
2023-05-16T06:55:17.985Z,22.60
2023-05-16T06:58:20.784Z,21.50
2023-05-16T07:01:27.375Z,21.23
2023-05-16T07:04:31.530Z,19.57
2023-05-16T07:07:34.254Z,20.27
2023-05-16T07:10:37.189Z,21.07
2023-05-16T07:13:39.882Z,21.40
2023-05-16T07:16:42.834Z,21.73
2023-05-16T07:19:46.893Z,21.63
2023-05-16T07:22:49.658Z,21.60
2023-05-16T07:25:53.331Z,22.57
2023-05-16T07:28:56.233Z,21.43
2023-05-16T07:31:59.384Z,20.90
2023-05-16T07:35:03.677Z,20.63
2023-05-16T07:38:06.562Z,19.20
2023-05-16T07:41:11.617Z,19.77
2023-05-16T07:44:14.609Z,21.20
2023-05-16T07:47:17.342Z,20.40
2023-05-16T07:50:24.769Z,19.47
2023-05-16T07:53:27.469Z,18.53
2023-05-16T07:56:30.263Z,18.53
2023-05-16T07:59:33.109Z,18.73
2023-05-16T08:02:36.143Z,18.43
2023-05-16T08:05:41.322Z,18.60
2023-05-16T08:08:47.381Z,19.10
2023-05-16T08:11:50.375Z,18.87
2023-05-16T08:14:53.090Z,17.70
2023-05-16T08:17:58.532Z,17.57
2023-05-16T08:21:02.846Z,15.20
2023-05-16T08:24:06.447Z,14.67
2023-05-16T08:27:09.637Z,12.27
2023-05-16T08:30:13.207Z,13.60
2023-05-16T08:33:16.190Z,11.63
2023-05-16T08:36:20.682Z,10.17
2023-05-16T08:39:30.678Z,12.20
2023-05-16T08:42:35.021Z,8.63
2023-05-16T08:45:45.335Z,9.67
2023-05-16T08:48:48.702Z,9.63
2023-05-16T08:51:53.471Z,5.83
2023-05-16T08:55:09.151Z,7.30
2023-05-16T08:58:21.830Z,7.50
2023-05-16T09:01:24.820Z,7.67
2023-05-16T09:04:27.984Z,5.33
2023-05-16T09:07:32.215Z,5.10
2023-05-16T09:10:34.894Z,4.73
2023-05-16T09:13:38.817Z,4.23
2023-05-16T09:16:41.651Z,3.53
2023-05-16T09:19:45.093Z,3.70
2023-05-16T09:22:54.247Z,3.27
2023-05-16T09:25:59.234Z,3.70
2023-05-16T09:29:02.323Z,3.33
2023-05-16T09:32:15.860Z,3.90
2023-05-16T09:35:27.235Z,3.53
2023-05-16T09:38:38.881Z,3.20
2023-05-16T09:41:41.594Z,2.97
2023-05-16T09:44:48.082Z,2.90
2023-05-16T09:47:53.925Z,2.37
2023-05-16T09:51:06.018Z,2.60
2023-05-16T09:54:10.505Z,2.70
2023-05-16T09:57:13.236Z,2.10
2023-05-16T10:00:17.321Z,2.13
2023-05-16T10:03:20.503Z,1.80
2023-05-16T10:06:23.640Z,1.00
2023-05-16T10:09:29.327Z,0.93
2023-05-16T10:12:33.208Z,1.10
2023-05-16T10:15:39.106Z,0.97
2023-05-16T10:18:43.401Z,1.40
2023-05-16T10:21:51.412Z,1.13
2023-05-16T10:25:05.379Z,0.83
2023-05-16T10:28:16.460Z,0.73
2023-05-16T10:31:19.485Z,2.90
2023-05-16T10:34:23.139Z,1.07
2023-05-16T10:37:26.600Z,1.10
2023-05-16T10:40:31.788Z,1.13
2023-05-16T10:43:34.475Z,1.07
2023-05-16T10:46:39.460Z,1.00
2023-05-16T10:49:42.680Z,1.33
2023-05-16T10:52:45.377Z,1.10
2023-05-16T10:56:10.468Z,1.00
2023-05-16T10:59:28.432Z,1.27
2023-05-16T11:02:34.703Z,1.03
2023-05-16T11:05:38.228Z,1.30
2023-05-16T11:08:59.360Z,1.10
2023-05-16T11:12:03.936Z,1.33
2023-05-16T11:15:28.527Z,1.13
2023-05-16T11:18:33.804Z,1.33
2023-05-16T11:22:22.938Z,1.20
2023-05-16T11:25:39.294Z,1.23
2023-05-16T11:28:43.557Z,1.10
2023-05-16T11:31:46.654Z,1.20
2023-05-16T11:34:49.817Z,1.30
2023-05-16T11:37:52.637Z,1.60
2023-05-16T11:40:55.384Z,1.27
2023-05-16T11:43:59.543Z,1.53
2023-05-16T11:47:03.624Z,1.40
2023-05-16T11:50:07.866Z,1.67
2023-05-16T11:53:10.650Z,1.30
2023-05-16T11:56:13.526Z,1.47
2023-05-16T11:59:18.235Z,1.40
2023-05-16T12:02:21.925Z,1.73
2023-05-16T12:05:28.378Z,1.60
2023-05-16T12:08:31.333Z,1.70
2023-05-16T12:11:34.450Z,1.20
2023-05-16T12:14:38.498Z,1.20
2023-05-16T12:17:42.868Z,1.60
2023-05-16T12:20:46.227Z,1.33
2023-05-16T12:23:49.053Z,1.30
2023-05-16T12:26:54.605Z,1.37
2023-05-16T12:30:00.516Z,1.83
2023-05-16T12:33:09.377Z,1.37
2023-05-16T12:36:15.687Z,1.80
2023-05-16T12:39:18.524Z,1.37
2023-05-16T12:42:21.475Z,1.70
2023-05-16T12:45:25.894Z,1.30
2023-05-16T12:48:33.686Z,1.53
2023-05-16T12:51:36.578Z,1.57
2023-05-16T12:54:39.895Z,1.30
2023-05-16T12:57:43.992Z,1.80
2023-05-16T13:00:48.639Z,1.50
2023-05-16T13:03:51.431Z,1.47
2023-05-16T13:06:59.133Z,1.23
2023-05-16T13:10:04.250Z,1.37
2023-05-16T13:13:07.185Z,1.53
2023-05-16T13:16:11.779Z,1.73
2023-05-16T13:19:14.532Z,1.50
2023-05-16T13:22:17.363Z,1.63
2023-05-16T13:25:20.539Z,1.30
2023-05-16T13:28:23.431Z,1.80
2023-05-16T13:31:27.751Z,1.43
2023-05-16T13:34:30.595Z,1.20
2023-05-16T13:37:33.517Z,1.47
2023-05-16T13:40:36.556Z,1.40
2023-05-16T13:43:39.275Z,1.37
2023-05-16T13:46:43.449Z,1.77
2023-05-16T13:49:46.173Z,1.60
2023-05-16T13:52:49.203Z,1.43
2023-05-16T13:55:52.008Z,1.50
2023-05-16T13:59:03.764Z,1.53
2023-05-16T14:02:10.282Z,1.10
2023-05-16T14:05:13.179Z,1.70
2023-05-16T14:08:15.934Z,1.40
2023-05-16T14:11:19.652Z,1.57
2023-05-16T14:14:22.608Z,1.53
2023-05-16T14:17:26.864Z,1.67
2023-05-16T14:20:29.634Z,1.10
2023-05-16T14:23:32.355Z,1.53
2023-05-16T14:26:35.151Z,1.50
2023-05-16T14:29:38.171Z,1.03
2023-05-16T14:32:42.475Z,1.13
2023-05-16T14:35:45.427Z,1.30
2023-05-16T14:38:49.571Z,1.37
2023-05-16T14:41:53.028Z,1.10
2023-05-16T14:44:55.811Z,1.60
2023-05-16T14:48:00.111Z,1.37
2023-05-16T14:51:03.699Z,1.50
2023-05-16T14:54:06.671Z,1.43
2023-05-16T14:57:09.642Z,0.93
2023-05-16T15:00:17.077Z,1.33
2023-05-16T15:03:21.487Z,0.90
2023-05-16T15:06:26.710Z,1.23
2023-05-16T15:09:29.530Z,1.07
2023-05-16T15:12:32.568Z,1.20
2023-05-16T15:15:35.492Z,1.40
2023-05-16T15:18:40.778Z,1.20
2023-05-16T15:21:43.684Z,1.57
2023-05-16T15:24:46.596Z,0.93
2023-05-16T15:27:49.614Z,2.83
2023-05-16T15:30:52.699Z,1.57
2023-05-16T15:33:56.851Z,1.40
2023-05-16T15:36:59.896Z,1.50
2023-05-16T15:40:04.434Z,2.60
2023-05-16T15:43:07.363Z,4.13
2023-05-16T15:46:10.537Z,1.63
2023-05-16T15:49:14.883Z,1.67
2023-05-16T15:52:17.658Z,2.20
2023-05-16T15:55:20.532Z,1.30
2023-05-16T15:58:24.297Z,1.37
2023-05-16T16:01:27.627Z,1.13
2023-05-16T16:04:32.714Z,1.20
2023-05-16T16:07:35.553Z,1.67
2023-05-16T16:10:38.618Z,0.90
2023-05-16T16:13:41.442Z,1.10
2023-05-16T16:16:44.835Z,1.30
2023-05-16T16:19:49.148Z,1.20
2023-05-16T16:22:52.669Z,0.97
2023-05-16T16:25:55.786Z,0.90
2023-05-16T16:28:58.839Z,1.07
2023-05-16T16:32:01.642Z,1.10
2023-05-16T16:35:06.805Z,2.30
2023-05-16T16:38:09.716Z,1.33
2023-05-16T16:41:14.786Z,0.77
2023-05-16T16:44:18.032Z,1.57
2023-05-16T16:47:21.303Z,1.13
2023-05-16T16:50:31.104Z,1.23
2023-05-16T16:53:35.282Z,0.90
2023-05-16T16:56:38.083Z,1.00
2023-05-16T16:59:40.981Z,1.10
2023-05-16T17:02:43.869Z,1.10
2023-05-16T17:05:48.213Z,1.40
2023-05-16T17:08:51.007Z,1.40
2023-05-16T17:11:54.031Z,1.40
2023-05-16T17:14:57.315Z,1.40
2023-05-16T17:18:00.259Z,1.50
2023-05-16T17:21:05.181Z,1.30
2023-05-16T17:24:08.595Z,1.10
2023-05-16T17:27:11.726Z,1.57
2023-05-16T17:30:15.548Z,1.40
2023-05-16T17:33:19.982Z,1.03
2023-05-16T17:36:24.316Z,1.17
2023-05-16T17:39:27.125Z,1.10
2023-05-16T17:42:29.832Z,1.30
2023-05-16T17:45:32.799Z,1.07
2023-05-16T17:48:35.611Z,1.00
2023-05-16T17:51:50.808Z,1.30
2023-05-16T17:54:53.622Z,1.20
2023-05-16T17:57:56.483Z,1.47
2023-05-16T18:00:59.190Z,1.23
2023-05-16T18:04:02.219Z,1.10
2023-05-16T18:07:06.529Z,0.80
2023-05-16T18:10:10.389Z,9.73
2023-05-16T18:13:13.985Z,3.40
2023-05-16T18:16:17.200Z,4.17
2023-05-16T18:19:20.699Z,1.47
2023-05-16T18:22:26.085Z,4.00
2023-05-16T18:25:29.377Z,2.50
2023-05-16T18:28:32.259Z,2.43
2023-05-16T18:31:35.542Z,2.60
2023-05-16T18:34:41.450Z,1.20
2023-05-16T18:37:46.682Z,5.80
2023-05-16T18:40:50.447Z,2.43
2023-05-16T18:43:53.298Z,1.70
2023-05-16T18:46:58.698Z,3.13
2023-05-16T18:50:02.577Z,1.10
2023-05-16T18:53:06.767Z,1.37
2023-05-16T18:56:09.462Z,1.40
2023-05-16T18:59:12.506Z,1.33
2023-05-16T19:02:15.867Z,1.40
2023-05-16T19:05:19.561Z,1.80
2023-05-16T19:08:25.573Z,1.00
2023-05-16T19:11:30.030Z,1.00
2023-05-16T19:14:32.924Z,0.90
2023-05-16T19:17:35.717Z,1.27
2023-05-16T19:20:43.235Z,0.93
2023-05-16T19:23:49.028Z,1.10
2023-05-16T19:26:51.854Z,1.00
2023-05-16T19:29:54.576Z,1.23
2023-05-16T19:32:58.679Z,1.53
2023-05-16T19:36:05.891Z,4.80
2023-05-16T19:39:11.209Z,1.90
2023-05-16T19:42:13.920Z,1.30
2023-05-16T19:45:16.671Z,1.23
2023-05-16T19:48:20.050Z,0.90
2023-05-16T19:51:37.227Z,1.30
2023-05-16T19:54:45.346Z,2.13
2023-05-16T19:57:48.144Z,1.70
2023-05-16T20:00:51.843Z,1.83
2023-05-16T20:03:54.623Z,2.20
2023-05-16T20:06:57.850Z,1.77
2023-05-16T20:10:02.369Z,2.00
2023-05-16T20:13:05.460Z,1.90
2023-05-16T20:16:08.384Z,1.63
2023-05-16T20:19:13.597Z,1.83
2023-05-16T20:22:17.117Z,1.50
2023-05-16T20:25:21.321Z,1.43
2023-05-16T20:28:27.348Z,1.50
2023-05-16T20:31:30.376Z,1.70
2023-05-16T20:34:33.262Z,1.57
2023-05-16T20:37:36.008Z,2.10
2023-05-16T20:40:40.838Z,1.80
2023-05-16T20:43:43.618Z,2.27
2023-05-16T20:46:46.560Z,1.50
2023-05-16T20:49:49.396Z,1.80
2023-05-16T20:52:52.162Z,1.53
2023-05-16T20:55:56.292Z,1.97
2023-05-16T20:58:59.171Z,1.93
2023-05-16T21:02:01.919Z,2.50
2023-05-16T21:05:22.990Z,2.20
2023-05-16T21:08:28.006Z,2.20
2023-05-16T21:11:32.990Z,2.10
2023-05-16T21:14:35.670Z,2.10
2023-05-16T21:17:39.838Z,2.00
2023-05-16T21:20:42.762Z,2.20
2023-05-16T21:23:45.480Z,2.40
2023-05-16T21:26:49.543Z,2.30
2023-05-16T21:29:52.236Z,2.67
2023-05-16T21:32:55.010Z,2.00
2023-05-16T21:35:57.818Z,2.73
2023-05-16T21:39:00.546Z,2.50
2023-05-16T21:42:05.337Z,1.90
2023-05-16T21:45:12.574Z,2.07
2023-05-16T21:48:15.696Z,1.77
2023-05-16T21:51:19.496Z,1.63
2023-05-16T21:54:22.218Z,1.63
2023-05-16T21:57:26.398Z,1.80
2023-05-16T22:00:29.126Z,1.70
2023-05-16T22:03:31.961Z,1.90
2023-05-16T22:06:34.743Z,1.63
2023-05-16T22:09:37.554Z,1.37
2023-05-16T22:12:41.655Z,2.00
2023-05-16T22:15:52.161Z,1.77
2023-05-16T22:19:08.963Z,1.87
2023-05-16T22:22:12.358Z,1.70
2023-05-16T22:25:15.649Z,1.60
2023-05-16T22:28:19.958Z,1.60
2023-05-16T22:31:22.674Z,1.57
2023-05-16T22:34:25.558Z,1.70
2023-05-16T22:37:28.306Z,1.70
2023-05-16T22:40:31.572Z,1.90
2023-05-16T22:43:35.789Z,1.80
2023-05-16T22:46:38.514Z,1.57
2023-05-16T22:49:41.290Z,1.40
2023-05-16T22:52:44.094Z,1.80
2023-05-16T22:55:46.811Z,1.97
2023-05-16T22:58:50.835Z,1.93
2023-05-16T23:01:53.776Z,1.90
2023-05-16T23:04:56.517Z,1.70
2023-05-16T23:07:59.391Z,1.50
2023-05-16T23:11:02.145Z,2.00
2023-05-16T23:14:06.198Z,1.50
2023-05-16T23:17:09.064Z,1.50
2023-05-16T23:20:14.985Z,1.47
2023-05-16T23:23:17.672Z,1.50
2023-05-16T23:26:21.054Z,1.73
2023-05-16T23:29:25.156Z,1.30
2023-05-16T23:32:27.996Z,1.53
2023-05-16T23:35:30.741Z,1.90
2023-05-16T23:38:33.448Z,2.10
2023-05-16T23:41:36.178Z,2.10
2023-05-16T23:44:41.775Z,2.20
2023-05-16T23:47:44.553Z,3.20
2023-05-16T23:50:47.351Z,3.20
2023-05-16T23:53:50.139Z,3.20
2023-05-16T23:56:52.896Z,3.17
2023-05-16T23:59:57.589Z,3.00
